sensor_id;sensor_type;location;lat;lon;timestamp;temperature;humidity
3380;DHT22;1703;51.964;7.642;2023-03-01T00:01:54;2.30;99.90
3380;DHT22;1703;51.964;7.642;2023-03-01T00:04:21;2.20;99.90
3380;DHT22;1703;51.964;7.642;2023-03-01T00:06:47;2.10;99.90
3380;DHT22;1703;51.964;7.642;2023-03-01T00:09:15;2.10;99.90
3380;DHT22;1703;51.964;7.642;2023-03-01T00:11:42;2.10;99.90
3380;DHT22;1703;51.964;7.642;2023-03-01T00:14:09;2.10;99.90
3380;DHT22;1703;51.964;7.642;2023-03-01T00:16:38;2.00;99.90
3380;DHT22;1703;51.964;7.642;2023-03-01T00:19:08;1.90;99.90
3380;DHT22;1703;51.964;7.642;2023-03-01T00:21:36;2.00;99.90
3380;DHT22;1703;51.964;7.642;2023-03-01T00:24:03;1.90;99.90
3380;DHT22;1703;51.964;7.642;2023-03-01T00:26:30;1.90;99.90
3380;DHT22;1703;51.964;7.642;2023-03-01T00:28:58;1.90;99.90
3380;DHT22;1703;51.964;7.642;2023-03-01T00:31:26;1.90;99.90
3380;DHT22;1703;51.964;7.642;2023-03-01T00:33:53;1.80;99.90
3380;DHT22;1703;51.964;7.642;2023-03-01T00:36:24;1.90;99.90
3380;DHT22;1703;51.964;7.642;2023-03-01T00:38:51;1.90;99.90
3380;DHT22;1703;51.964;7.642;2023-03-01T00:41:19;1.90;99.90
3380;DHT22;1703;51.964;7.642;2023-03-01T00:43:48;1.90;99.90
3380;DHT22;1703;51.964;7.642;2023-03-01T00:46:17;1.80;99.90
3380;DHT22;1703;51.964;7.642;2023-03-01T00:48:44;1.90;99.90
3380;DHT22;1703;51.964;7.642;2023-03-01T00:51:12;1.90;99.90
3380;DHT22;1703;51.964;7.642;2023-03-01T00:53:41;1.90;99.90
3380;DHT22;1703;51.964;7.642;2023-03-01T00:56:10;1.90;99.90
3380;DHT22;1703;51.964;7.642;2023-03-01T00:58:38;1.80;99.90
3380;DHT22;1703;51.964;7.642;2023-03-01T01:01:08;1.80;99.90
3380;DHT22;1703;51.964;7.642;2023-03-01T01:03:43;1.80;99.90
3380;DHT22;1703;51.964;7.642;2023-03-01T01:06:14;1.80;99.90
3380;DHT22;1703;51.964;7.642;2023-03-01T01:08:42;1.80;99.90
3380;DHT22;1703;51.964;7.642;2023-03-01T01:11:09;1.70;99.90
3380;DHT22;1703;51.964;7.642;2023-03-01T01:13:37;1.70;99.90
3380;DHT22;1703;51.964;7.642;2023-03-01T01:16:04;1.60;99.90
3380;DHT22;1703;51.964;7.642;2023-03-01T01:18:31;1.60;99.90
3380;DHT22;1703;51.964;7.642;2023-03-01T01:21:03;1.60;99.90
3380;DHT22;1703;51.964;7.642;2023-03-01T01:23:30;1.60;99.90
3380;DHT22;1703;51.964;7.642;2023-03-01T01:26:03;1.60;99.90
3380;DHT22;1703;51.964;7.642;2023-03-01T01:28:30;1.60;99.90
3380;DHT22;1703;51.964;7.642;2023-03-01T01:30:57;1.60;99.90
3380;DHT22;1703;51.964;7.642;2023-03-01T01:33:24;1.70;99.90
3380;DHT22;1703;51.964;7.642;2023-03-01T01:35:51;1.60;99.90
3380;DHT22;1703;51.964;7.642;2023-03-01T01:38:18;1.60;99.90
3380;DHT22;1703;51.964;7.642;2023-03-01T01:40:47;1.60;99.90
3380;DHT22;1703;51.964;7.642;2023-03-01T01:43:20;1.60;99.90
3380;DHT22;1703;51.964;7.642;2023-03-01T01:45:47;1.50;99.90
3380;DHT22;1703;51.964;7.642;2023-03-01T01:48:18;1.40;99.90
3380;DHT22;1703;51.964;7.642;2023-03-01T01:50:49;1.40;99.90
3380;DHT22;1703;51.964;7.642;2023-03-01T01:53:19;1.30;99.90
3380;DHT22;1703;51.964;7.642;2023-03-01T01:55:50;1.20;99.90
3380;DHT22;1703;51.964;7.642;2023-03-01T01:58:20;1.20;99.90
3380;DHT22;1703;51.964;7.642;2023-03-01T02:00:48;1.20;99.90
3380;DHT22;1703;51.964;7.642;2023-03-01T02:03:18;1.20;99.90
3380;DHT22;1703;51.964;7.642;2023-03-01T02:05:50;1.20;99.90
3380;DHT22;1703;51.964;7.642;2023-03-01T02:08:19;1.20;99.90
3380;DHT22;1703;51.964;7.642;2023-03-01T02:10:48;1.20;99.90
3380;DHT22;1703;51.964;7.642;2023-03-01T02:13:16;1.10;99.90
3380;DHT22;1703;51.964;7.642;2023-03-01T02:15:44;1.10;99.90
3380;DHT22;1703;51.964;7.642;2023-03-01T02:18:14;1.10;99.90
3380;DHT22;1703;51.964;7.642;2023-03-01T02:20:50;1.10;99.90
3380;DHT22;1703;51.964;7.642;2023-03-01T02:23:22;1.00;99.90
3380;DHT22;1703;51.964;7.642;2023-03-01T02:25:54;1.00;99.90
3380;DHT22;1703;51.964;7.642;2023-03-01T02:28:42;1.10;99.90
3380;DHT22;1703;51.964;7.642;2023-03-01T02:31:11;1.10;99.90
3380;DHT22;1703;51.964;7.642;2023-03-01T02:33:58;1.10;99.90
3380;DHT22;1703;51.964;7.642;2023-03-01T02:36:30;1.10;99.90
3380;DHT22;1703;51.964;7.642;2023-03-01T02:38:59;1.10;99.90
3380;DHT22;1703;51.964;7.642;2023-03-01T02:41:31;1.10;99.90
3380;DHT22;1703;51.964;7.642;2023-03-01T02:43:59;1.00;99.90
3380;DHT22;1703;51.964;7.642;2023-03-01T02:46:26;1.00;99.90
3380;DHT22;1703;51.964;7.642;2023-03-01T02:48:55;1.10;99.90
3380;DHT22;1703;51.964;7.642;2023-03-01T02:51:33;1.10;99.90
3380;DHT22;1703;51.964;7.642;2023-03-01T02:54:15;1.00;99.90
3380;DHT22;1703;51.964;7.642;2023-03-01T02:56:44;1.00;99.90
3380;DHT22;1703;51.964;7.642;2023-03-01T02:59:17;1.00;99.90
3380;DHT22;1703;51.964;7.642;2023-03-01T03:01:44;0.90;99.90
3380;DHT22;1703;51.964;7.642;2023-03-01T03:04:14;1.00;99.90
3380;DHT22;1703;51.964;7.642;2023-03-01T03:06:43;0.90;99.90
3380;DHT22;1703;51.964;7.642;2023-03-01T03:09:11;1.00;99.90
3380;DHT22;1703;51.964;7.642;2023-03-01T03:11:38;1.00;99.90
3380;DHT22;1703;51.964;7.642;2023-03-01T03:14:07;0.90;99.90
3380;DHT22;1703;51.964;7.642;2023-03-01T03:16:40;1.00;99.90
3380;DHT22;1703;51.964;7.642;2023-03-01T03:19:07;0.90;99.90
3380;DHT22;1703;51.964;7.642;2023-03-01T03:21:34;1.00;99.90
3380;DHT22;1703;51.964;7.642;2023-03-01T03:24:02;1.10;99.90
3380;DHT22;1703;51.964;7.642;2023-03-01T03:26:28;1.10;99.90
3380;DHT22;1703;51.964;7.642;2023-03-01T03:28:55;1.00;99.90
3380;DHT22;1703;51.964;7.642;2023-03-01T03:31:23;1.00;99.90
3380;DHT22;1703;51.964;7.642;2023-03-01T03:33:51;0.90;99.90
3380;DHT22;1703;51.964;7.642;2023-03-01T03:36:20;0.90;99.90
3380;DHT22;1703;51.964;7.642;2023-03-01T03:38:47;0.80;99.90
3380;DHT22;1703;51.964;7.642;2023-03-01T03:41:14;0.80;99.90
3380;DHT22;1703;51.964;7.642;2023-03-01T03:43:42;0.80;99.90
3380;DHT22;1703;51.964;7.642;2023-03-01T03:46:10;0.80;99.90
3380;DHT22;1703;51.964;7.642;2023-03-01T03:48:38;0.70;99.90
3380;DHT22;1703;51.964;7.642;2023-03-01T03:51:10;0.70;99.90
3380;DHT22;1703;51.964;7.642;2023-03-01T03:53:37;0.70;99.90
3380;DHT22;1703;51.964;7.642;2023-03-01T03:56:05;0.60;99.90
3380;DHT22;1703;51.964;7.642;2023-03-01T03:58:32;0.60;99.90
3380;DHT22;1703;51.964;7.642;2023-03-01T04:00:59;0.60;99.90
3380;DHT22;1703;51.964;7.642;2023-03-01T04:03:28;0.50;99.90
3380;DHT22;1703;51.964;7.642;2023-03-01T04:05:57;0.40;99.90
3380;DHT22;1703;51.964;7.642;2023-03-01T04:08:26;0.40;99.90
3380;DHT22;1703;51.964;7.642;2023-03-01T04:10:57;0.40;99.90
3380;DHT22;1703;51.964;7.642;2023-03-01T04:13:25;0.40;99.90
3380;DHT22;1703;51.964;7.642;2023-03-01T04:15:53;0.40;99.90
3380;DHT22;1703;51.964;7.642;2023-03-01T04:18:21;0.40;99.90
3380;DHT22;1703;51.964;7.642;2023-03-01T04:20:49;0.40;99.90
3380;DHT22;1703;51.964;7.642;2023-03-01T04:23:19;0.40;99.90
3380;DHT22;1703;51.964;7.642;2023-03-01T04:25:49;0.50;99.90
3380;DHT22;1703;51.964;7.642;2023-03-01T04:28:19;0.50;99.90
3380;DHT22;1703;51.964;7.642;2023-03-01T04:30:46;0.40;99.90
3380;DHT22;1703;51.964;7.642;2023-03-01T04:33:13;0.50;99.90
3380;DHT22;1703;51.964;7.642;2023-03-01T04:35:39;0.50;99.90
3380;DHT22;1703;51.964;7.642;2023-03-01T04:38:06;0.50;99.90
3380;DHT22;1703;51.964;7.642;2023-03-01T04:40:34;0.40;99.90
3380;DHT22;1703;51.964;7.642;2023-03-01T04:43:02;0.40;99.90
3380;DHT22;1703;51.964;7.642;2023-03-01T04:45:32;0.40;99.90
3380;DHT22;1703;51.964;7.642;2023-03-01T04:48:00;0.40;99.90
3380;DHT22;1703;51.964;7.642;2023-03-01T04:50:27;0.40;99.90
3380;DHT22;1703;51.964;7.642;2023-03-01T04:52:53;0.30;99.90
3380;DHT22;1703;51.964;7.642;2023-03-01T04:55:25;0.30;99.90
3380;DHT22;1703;51.964;7.642;2023-03-01T04:57:52;0.30;99.90
3380;DHT22;1703;51.964;7.642;2023-03-01T05:00:21;0.20;99.90
3380;DHT22;1703;51.964;7.642;2023-03-01T05:02:50;0.20;99.90
3380;DHT22;1703;51.964;7.642;2023-03-01T05:05:23;0.20;99.90
3380;DHT22;1703;51.964;7.642;2023-03-01T05:07:54;0.20;99.90
3380;DHT22;1703;51.964;7.642;2023-03-01T05:10:22;0.20;99.90
3380;DHT22;1703;51.964;7.642;2023-03-01T05:12:49;0.30;99.90
3380;DHT22;1703;51.964;7.642;2023-03-01T05:15:17;0.30;99.90
3380;DHT22;1703;51.964;7.642;2023-03-01T05:17:46;0.20;99.90
3380;DHT22;1703;51.964;7.642;2023-03-01T05:20:13;0.20;99.90
3380;DHT22;1703;51.964;7.642;2023-03-01T05:22:40;0.20;99.90
3380;DHT22;1703;51.964;7.642;2023-03-01T05:25:07;0.20;99.90
3380;DHT22;1703;51.964;7.642;2023-03-01T05:27:34;0.30;99.90
3380;DHT22;1703;51.964;7.642;2023-03-01T05:30:01;0.30;99.90
3380;DHT22;1703;51.964;7.642;2023-03-01T05:32:40;0.40;99.90
3380;DHT22;1703;51.964;7.642;2023-03-01T05:35:11;0.40;99.90
3380;DHT22;1703;51.964;7.642;2023-03-01T05:37:40;0.50;99.90
3380;DHT22;1703;51.964;7.642;2023-03-01T05:40:09;0.40;99.90
3380;DHT22;1703;51.964;7.642;2023-03-01T05:42:44;0.40;99.90
3380;DHT22;1703;51.964;7.642;2023-03-01T05:45:12;0.50;99.90
3380;DHT22;1703;51.964;7.642;2023-03-01T05:47:39;0.40;99.90
3380;DHT22;1703;51.964;7.642;2023-03-01T05:50:12;0.30;99.90
3380;DHT22;1703;51.964;7.642;2023-03-01T05:52:39;0.30;99.90
3380;DHT22;1703;51.964;7.642;2023-03-01T05:55:07;0.30;99.90
3380;DHT22;1703;51.964;7.642;2023-03-01T05:57:34;0.30;99.90
3380;DHT22;1703;51.964;7.642;2023-03-01T06:00:01;0.30;99.90
3380;DHT22;1703;51.964;7.642;2023-03-01T06:02:38;0.30;99.90
3380;DHT22;1703;51.964;7.642;2023-03-01T06:05:06;0.30;99.90
3380;DHT22;1703;51.964;7.642;2023-03-01T06:07:35;0.30;99.90
3380;DHT22;1703;51.964;7.642;2023-03-01T06:10:03;0.30;99.90
3380;DHT22;1703;51.964;7.642;2023-03-01T06:12:31;0.30;99.90
3380;DHT22;1703;51.964;7.642;2023-03-01T06:14:58;0.20;99.90
3380;DHT22;1703;51.964;7.642;2023-03-01T06:17:25;0.20;99.90
3380;DHT22;1703;51.964;7.642;2023-03-01T06:19:52;0.20;99.90
3380;DHT22;1703;51.964;7.642;2023-03-01T06:22:18;0.20;99.90
3380;DHT22;1703;51.964;7.642;2023-03-01T06:24:47;0.10;99.90
3380;DHT22;1703;51.964;7.642;2023-03-01T06:27:13;0.10;99.90
3380;DHT22;1703;51.964;7.642;2023-03-01T06:29:40;0.10;99.90
3380;DHT22;1703;51.964;7.642;2023-03-01T06:32:07;0.20;99.90
3380;DHT22;1703;51.964;7.642;2023-03-01T06:34:34;0.20;99.90
3380;DHT22;1703;51.964;7.642;2023-03-01T06:37:01;0.20;99.90
3380;DHT22;1703;51.964;7.642;2023-03-01T06:39:30;0.20;99.90
3380;DHT22;1703;51.964;7.642;2023-03-01T06:41:59;0.20;99.90
3380;DHT22;1703;51.964;7.642;2023-03-01T06:44:26;0.20;99.90
3380;DHT22;1703;51.964;7.642;2023-03-01T06:46:53;0.30;99.90
3380;DHT22;1703;51.964;7.642;2023-03-01T06:49:20;0.30;99.90
3380;DHT22;1703;51.964;7.642;2023-03-01T06:51:47;0.30;99.90
3380;DHT22;1703;51.964;7.642;2023-03-01T06:54:14;0.30;99.90
3380;DHT22;1703;51.964;7.642;2023-03-01T06:56:40;0.30;99.90
3380;DHT22;1703;51.964;7.642;2023-03-01T06:59:09;0.40;99.90
3380;DHT22;1703;51.964;7.642;2023-03-01T07:01:36;0.40;99.90
3380;DHT22;1703;51.964;7.642;2023-03-01T07:04:02;0.40;99.90
3380;DHT22;1703;51.964;7.642;2023-03-01T07:06:29;0.40;99.90
3380;DHT22;1703;51.964;7.642;2023-03-01T07:08:56;0.50;99.90
3380;DHT22;1703;51.964;7.642;2023-03-01T07:11:23;0.50;99.90
3380;DHT22;1703;51.964;7.642;2023-03-01T07:13:50;0.60;99.90
3380;DHT22;1703;51.964;7.642;2023-03-01T07:16:18;0.60;99.90
3380;DHT22;1703;51.964;7.642;2023-03-01T07:18:46;0.70;99.90
3380;DHT22;1703;51.964;7.642;2023-03-01T07:21:14;0.70;99.90
3380;DHT22;1703;51.964;7.642;2023-03-01T07:23:42;0.70;99.90
3380;DHT22;1703;51.964;7.642;2023-03-01T07:26:09;0.80;99.90
3380;DHT22;1703;51.964;7.642;2023-03-01T07:28:36;0.80;99.90
3380;DHT22;1703;51.964;7.642;2023-03-01T07:31:05;0.90;99.90
3380;DHT22;1703;51.964;7.642;2023-03-01T07:33:33;0.90;99.90
3380;DHT22;1703;51.964;7.642;2023-03-01T07:36:02;1.00;99.90
3380;DHT22;1703;51.964;7.642;2023-03-01T07:38:29;1.00;99.90
3380;DHT22;1703;51.964;7.642;2023-03-01T07:41:00;1.10;99.90
3380;DHT22;1703;51.964;7.642;2023-03-01T07:43:27;1.10;99.90
3380;DHT22;1703;51.964;7.642;2023-03-01T07:45:54;1.20;99.90
3380;DHT22;1703;51.964;7.642;2023-03-01T07:48:21;1.30;99.90
3380;DHT22;1703;51.964;7.642;2023-03-01T07:50:49;1.30;99.90
3380;DHT22;1703;51.964;7.642;2023-03-01T07:53:16;1.40;99.90
3380;DHT22;1703;51.964;7.642;2023-03-01T07:55:42;1.40;99.90
3380;DHT22;1703;51.964;7.642;2023-03-01T07:58:09;1.50;99.90
3380;DHT22;1703;51.964;7.642;2023-03-01T08:07:57;1.70;99.90
3380;DHT22;1703;51.964;7.642;2023-03-01T08:10:24;1.70;99.90
3380;DHT22;1703;51.964;7.642;2023-03-01T08:13:32;1.70;99.90
3380;DHT22;1703;51.964;7.642;2023-03-01T08:17:07;1.80;99.90
3380;DHT22;1703;51.964;7.642;2023-03-01T08:24:30;2.00;99.90
3380;DHT22;1703;51.964;7.642;2023-03-01T08:27:08;2.30;99.90
3380;DHT22;1703;51.964;7.642;2023-03-01T08:29:37;2.50;99.90
3380;DHT22;1703;51.964;7.642;2023-03-01T08:32:04;2.60;99.90
3380;DHT22;1703;51.964;7.642;2023-03-01T08:34:31;2.80;99.90
3380;DHT22;1703;51.964;7.642;2023-03-01T08:37:01;2.90;99.90
3380;DHT22;1703;51.964;7.642;2023-03-01T08:39:29;3.00;99.90
3380;DHT22;1703;51.964;7.642;2023-03-01T08:41:57;3.00;99.90
3380;DHT22;1703;51.964;7.642;2023-03-01T08:44:24;3.00;99.90
3380;DHT22;1703;51.964;7.642;2023-03-01T08:46:50;3.10;99.90
3380;DHT22;1703;51.964;7.642;2023-03-01T08:49:19;3.10;99.90
3380;DHT22;1703;51.964;7.642;2023-03-01T08:51:47;3.20;99.90
3380;DHT22;1703;51.964;7.642;2023-03-01T08:54:15;3.30;99.90
3380;DHT22;1703;51.964;7.642;2023-03-01T08:56:45;3.30;99.90
3380;DHT22;1703;51.964;7.642;2023-03-01T08:59:14;3.30;99.90
3380;DHT22;1703;51.964;7.642;2023-03-01T09:01:41;3.40;99.90
3380;DHT22;1703;51.964;7.642;2023-03-01T09:04:09;3.50;99.90
3380;DHT22;1703;51.964;7.642;2023-03-01T09:06:36;3.60;99.90
3380;DHT22;1703;51.964;7.642;2023-03-01T09:09:04;3.60;99.90
3380;DHT22;1703;51.964;7.642;2023-03-01T09:11:31;3.70;99.90
3380;DHT22;1703;51.964;7.642;2023-03-01T09:13:59;3.70;99.90
3380;DHT22;1703;51.964;7.642;2023-03-01T09:16:26;3.70;99.90
3380;DHT22;1703;51.964;7.642;2023-03-01T09:18:55;3.80;99.90
3380;DHT22;1703;51.964;7.642;2023-03-01T09:21:23;3.90;99.90
3380;DHT22;1703;51.964;7.642;2023-03-01T09:23:53;4.00;99.90
3380;DHT22;1703;51.964;7.642;2023-03-01T09:26:21;4.10;99.90
3380;DHT22;1703;51.964;7.642;2023-03-01T09:28:49;4.30;99.90
3380;DHT22;1703;51.964;7.642;2023-03-01T09:31:25;4.30;99.90
3380;DHT22;1703;51.964;7.642;2023-03-01T09:33:55;4.30;99.90
3380;DHT22;1703;51.964;7.642;2023-03-01T09:36:23;4.30;99.90
3380;DHT22;1703;51.964;7.642;2023-03-01T09:38:51;4.40;99.90
3380;DHT22;1703;51.964;7.642;2023-03-01T09:41:32;4.50;99.90
3380;DHT22;1703;51.964;7.642;2023-03-01T09:44:08;4.50;99.90
3380;DHT22;1703;51.964;7.642;2023-03-01T09:46:42;4.50;99.90
3380;DHT22;1703;51.964;7.642;2023-03-01T09:49:14;4.60;99.90
3380;DHT22;1703;51.964;7.642;2023-03-01T09:51:47;4.60;99.90
3380;DHT22;1703;51.964;7.642;2023-03-01T09:54:20;4.70;99.90
3380;DHT22;1703;51.964;7.642;2023-03-01T09:56:57;4.80;99.90
3380;DHT22;1703;51.964;7.642;2023-03-01T09:59:31;4.80;99.90
3380;DHT22;1703;51.964;7.642;2023-03-01T10:02:04;4.90;99.90
3380;DHT22;1703;51.964;7.642;2023-03-01T10:04:44;5.00;99.90
3380;DHT22;1703;51.964;7.642;2023-03-01T10:07:22;5.00;99.90
3380;DHT22;1703;51.964;7.642;2023-03-01T10:09:52;5.00;99.90
3380;DHT22;1703;51.964;7.642;2023-03-01T10:12:22;5.00;99.90
3380;DHT22;1703;51.964;7.642;2023-03-01T10:14:55;5.10;99.90
3380;DHT22;1703;51.964;7.642;2023-03-01T10:17:30;5.10;99.90
3380;DHT22;1703;51.964;7.642;2023-03-01T10:20:14;5.10;99.90
3380;DHT22;1703;51.964;7.642;2023-03-01T10:22:42;5.20;99.90
3380;DHT22;1703;51.964;7.642;2023-03-01T10:25:13;5.30;99.90
3380;DHT22;1703;51.964;7.642;2023-03-01T10:27:46;5.30;99.90
3380;DHT22;1703;51.964;7.642;2023-03-01T10:30:19;5.40;99.90
3380;DHT22;1703;51.964;7.642;2023-03-01T10:32:49;5.50;99.90
3380;DHT22;1703;51.964;7.642;2023-03-01T10:35:19;5.40;99.90
3380;DHT22;1703;51.964;7.642;2023-03-01T10:37:57;5.60;99.90
3380;DHT22;1703;51.964;7.642;2023-03-01T10:40:24;5.70;99.90
3380;DHT22;1703;51.964;7.642;2023-03-01T10:42:51;5.70;99.90
3380;DHT22;1703;51.964;7.642;2023-03-01T10:45:31;5.70;99.90
3380;DHT22;1703;51.964;7.642;2023-03-01T10:48:12;5.80;99.90
3380;DHT22;1703;51.964;7.642;2023-03-01T10:50:40;5.80;99.90
3380;DHT22;1703;51.964;7.642;2023-03-01T10:53:21;5.80;99.90
3380;DHT22;1703;51.964;7.642;2023-03-01T10:55:58;5.90;99.90
3380;DHT22;1703;51.964;7.642;2023-03-01T10:58:26;5.90;99.90
3380;DHT22;1703;51.964;7.642;2023-03-01T11:00:54;5.90;99.90
3380;DHT22;1703;51.964;7.642;2023-03-01T11:03:24;5.90;99.90
3380;DHT22;1703;51.964;7.642;2023-03-01T11:06:00;5.90;99.90
3380;DHT22;1703;51.964;7.642;2023-03-01T11:08:39;6.00;99.90
3380;DHT22;1703;51.964;7.642;2023-03-01T11:11:20;6.00;99.90
3380;DHT22;1703;51.964;7.642;2023-03-01T11:13:56;6.00;99.90
3380;DHT22;1703;51.964;7.642;2023-03-01T11:16:26;6.00;99.90
3380;DHT22;1703;51.964;7.642;2023-03-01T11:19:01;6.10;99.90
3380;DHT22;1703;51.964;7.642;2023-03-01T11:21:30;6.00;99.90
3380;DHT22;1703;51.964;7.642;2023-03-01T11:24:00;6.00;99.90
3380;DHT22;1703;51.964;7.642;2023-03-01T11:26:28;6.00;99.90
3380;DHT22;1703;51.964;7.642;2023-03-01T11:29:02;6.20;99.90
3380;DHT22;1703;51.964;7.642;2023-03-01T11:31:31;6.30;99.90
3380;DHT22;1703;51.964;7.642;2023-03-01T11:34:05;6.30;99.90
3380;DHT22;1703;51.964;7.642;2023-03-01T11:36:38;6.40;99.90
3380;DHT22;1703;51.964;7.642;2023-03-01T11:39:18;6.40;99.90
3380;DHT22;1703;51.964;7.642;2023-03-01T11:41:50;6.40;99.90
3380;DHT22;1703;51.964;7.642;2023-03-01T11:44:23;6.50;99.90
3380;DHT22;1703;51.964;7.642;2023-03-01T11:47:07;6.50;99.90
3380;DHT22;1703;51.964;7.642;2023-03-01T11:49:50;6.50;99.90
3380;DHT22;1703;51.964;7.642;2023-03-01T11:52:28;6.60;99.90
3380;DHT22;1703;51.964;7.642;2023-03-01T11:55:12;6.60;99.90
3380;DHT22;1703;51.964;7.642;2023-03-01T11:57:51;6.50;99.90
3380;DHT22;1703;51.964;7.642;2023-03-01T12:00:38;6.50;99.90
3380;DHT22;1703;51.964;7.642;2023-03-01T12:03:30;6.50;99.90
3380;DHT22;1703;51.964;7.642;2023-03-01T12:06:22;6.60;99.90
3380;DHT22;1703;51.964;7.642;2023-03-01T12:09:01;6.70;99.90
3380;DHT22;1703;51.964;7.642;2023-03-01T12:11:39;6.70;99.90
3380;DHT22;1703;51.964;7.642;2023-03-01T12:14:28;6.70;99.90
3380;DHT22;1703;51.964;7.642;2023-03-01T12:17:07;6.80;99.90
3380;DHT22;1703;51.964;7.642;2023-03-01T12:20:02;6.80;99.90
3380;DHT22;1703;51.964;7.642;2023-03-01T12:22:43;6.90;99.90
3380;DHT22;1703;51.964;7.642;2023-03-01T12:25:25;6.90;99.90
3380;DHT22;1703;51.964;7.642;2023-03-01T12:31:22;7.00;99.90
3380;DHT22;1703;51.964;7.642;2023-03-01T12:34:03;7.00;99.90
3380;DHT22;1703;51.964;7.642;2023-03-01T12:36:53;7.00;99.90
3380;DHT22;1703;51.964;7.642;2023-03-01T12:39:45;7.00;99.90
3380;DHT22;1703;51.964;7.642;2023-03-01T12:42:21;7.10;99.90
3380;DHT22;1703;51.964;7.642;2023-03-01T12:45:02;7.20;99.90
3380;DHT22;1703;51.964;7.642;2023-03-01T12:47:52;7.20;99.90
3380;DHT22;1703;51.964;7.642;2023-03-01T12:50:22;7.20;99.90
3380;DHT22;1703;51.964;7.642;2023-03-01T12:52:52;7.20;99.90
3380;DHT22;1703;51.964;7.642;2023-03-01T12:55:26;7.20;99.90
3380;DHT22;1703;51.964;7.642;2023-03-01T12:58:02;7.20;99.90
3380;DHT22;1703;51.964;7.642;2023-03-01T13:00:39;7.20;99.90
3380;DHT22;1703;51.964;7.642;2023-03-01T13:03:18;7.20;99.90
3380;DHT22;1703;51.964;7.642;2023-03-01T13:05:56;7.20;99.90
3380;DHT22;1703;51.964;7.642;2023-03-01T13:08:31;7.30;99.90
3380;DHT22;1703;51.964;7.642;2023-03-01T13:11:04;7.30;99.90
3380;DHT22;1703;51.964;7.642;2023-03-01T13:13:32;7.30;99.90
3380;DHT22;1703;51.964;7.642;2023-03-01T13:16:21;7.40;99.90
3380;DHT22;1703;51.964;7.642;2023-03-01T13:18:49;7.50;99.90
3380;DHT22;1703;51.964;7.642;2023-03-01T13:21:29;7.40;99.90
3380;DHT22;1703;51.964;7.642;2023-03-01T13:23:57;7.50;99.90
3380;DHT22;1703;51.964;7.642;2023-03-01T13:26:25;7.30;99.90
3380;DHT22;1703;51.964;7.642;2023-03-01T13:28:54;7.40;99.90
3380;DHT22;1703;51.964;7.642;2023-03-01T13:34:49;7.50;99.90
3380;DHT22;1703;51.964;7.642;2023-03-01T13:37:35;7.50;99.90
3380;DHT22;1703;51.964;7.642;2023-03-01T13:43:30;7.50;99.90
3380;DHT22;1703;51.964;7.642;2023-03-01T13:46:15;7.60;99.90
3380;DHT22;1703;51.964;7.642;2023-03-01T13:48:45;7.50;99.90
3380;DHT22;1703;51.964;7.642;2023-03-01T13:51:13;7.50;99.90
3380;DHT22;1703;51.964;7.642;2023-03-01T13:53:42;7.60;99.90
3380;DHT22;1703;51.964;7.642;2023-03-01T13:56:12;7.70;99.90
3380;DHT22;1703;51.964;7.642;2023-03-01T13:58:49;7.80;99.90
3380;DHT22;1703;51.964;7.642;2023-03-01T14:01:26;7.90;99.90
3380;DHT22;1703;51.964;7.642;2023-03-01T14:03:53;7.90;99.90
3380;DHT22;1703;51.964;7.642;2023-03-01T14:06:22;8.00;99.90
3380;DHT22;1703;51.964;7.642;2023-03-01T14:08:52;8.10;99.90
3380;DHT22;1703;51.964;7.642;2023-03-01T14:14:42;8.90;99.90
3380;DHT22;1703;51.964;7.642;2023-03-01T14:20:14;11.00;99.60
3380;DHT22;1703;51.964;7.642;2023-03-01T14:25:27;12.90;95.80
3380;DHT22;1703;51.964;7.642;2023-03-01T14:27:58;13.90;90.80
3380;DHT22;1703;51.964;7.642;2023-03-01T14:30:30;14.40;89.00
3380;DHT22;1703;51.964;7.642;2023-03-01T14:32:59;14.80;82.90
3380;DHT22;1703;51.964;7.642;2023-03-01T14:35:34;15.00;76.80
3380;DHT22;1703;51.964;7.642;2023-03-01T14:38:01;14.90;76.50
3380;DHT22;1703;51.964;7.642;2023-03-01T14:40:30;14.60;74.70
3380;DHT22;1703;51.964;7.642;2023-03-01T14:43:00;14.30;72.60
3380;DHT22;1703;51.964;7.642;2023-03-01T14:45:30;14.00;73.60
3380;DHT22;1703;51.964;7.642;2023-03-01T14:48:00;13.90;72.60
3380;DHT22;1703;51.964;7.642;2023-03-01T14:50:30;13.70;72.60
3380;DHT22;1703;51.964;7.642;2023-03-01T14:52:59;13.60;73.50
3380;DHT22;1703;51.964;7.642;2023-03-01T14:55:30;13.40;73.30
3380;DHT22;1703;51.964;7.642;2023-03-01T14:57:58;13.40;72.70
3380;DHT22;1703;51.964;7.642;2023-03-01T15:00:27;13.30;73.00
3380;DHT22;1703;51.964;7.642;2023-03-01T15:02:59;13.40;73.80
3380;DHT22;1703;51.964;7.642;2023-03-01T15:05:29;13.50;74.90
3380;DHT22;1703;51.964;7.642;2023-03-01T15:07:58;13.60;75.20
3380;DHT22;1703;51.964;7.642;2023-03-01T15:10:27;13.40;73.20
3380;DHT22;1703;51.964;7.642;2023-03-01T15:12:54;13.20;74.60
3380;DHT22;1703;51.964;7.642;2023-03-01T15:15:36;13.10;75.00
3380;DHT22;1703;51.964;7.642;2023-03-01T15:18:13;13.10;75.20
3380;DHT22;1703;51.964;7.642;2023-03-01T15:20:41;13.10;77.20
3380;DHT22;1703;51.964;7.642;2023-03-01T15:23:21;13.10;75.10
3380;DHT22;1703;51.964;7.642;2023-03-01T15:25:50;13.00;74.10
3380;DHT22;1703;51.964;7.642;2023-03-01T15:28:25;13.10;71.90
3380;DHT22;1703;51.964;7.642;2023-03-01T15:30:55;13.00;73.20
3380;DHT22;1703;51.964;7.642;2023-03-01T15:33:36;12.70;73.70
3380;DHT22;1703;51.964;7.642;2023-03-01T15:36:30;12.40;73.90
3380;DHT22;1703;51.964;7.642;2023-03-01T15:38:58;12.60;76.60
3380;DHT22;1703;51.964;7.642;2023-03-01T15:41:27;13.10;75.00
3380;DHT22;1703;51.964;7.642;2023-03-01T15:43:57;12.90;73.90
3380;DHT22;1703;51.964;7.642;2023-03-01T15:46:29;12.40;73.10
3380;DHT22;1703;51.964;7.642;2023-03-01T15:49:00;12.10;72.80
3380;DHT22;1703;51.964;7.642;2023-03-01T15:51:33;11.60;73.50
3380;DHT22;1703;51.964;7.642;2023-03-01T15:54:04;11.10;73.90
3380;DHT22;1703;51.964;7.642;2023-03-01T15:56:32;10.60;75.70
3380;DHT22;1703;51.964;7.642;2023-03-01T15:59:01;10.30;76.70
3380;DHT22;1703;51.964;7.642;2023-03-01T16:01:28;9.90;79.50
3380;DHT22;1703;51.964;7.642;2023-03-01T16:03:56;9.50;79.80
3380;DHT22;1703;51.964;7.642;2023-03-01T16:06:25;9.30;79.60
3380;DHT22;1703;51.964;7.642;2023-03-01T16:08:52;9.10;79.80
3380;DHT22;1703;51.964;7.642;2023-03-01T16:11:20;8.90;81.10
3380;DHT22;1703;51.964;7.642;2023-03-01T16:13:47;8.70;81.70
3380;DHT22;1703;51.964;7.642;2023-03-01T16:16:16;8.60;83.00
3380;DHT22;1703;51.964;7.642;2023-03-01T16:18:44;8.50;84.90
3380;DHT22;1703;51.964;7.642;2023-03-01T16:21:14;8.30;87.40
3380;DHT22;1703;51.964;7.642;2023-03-01T16:23:43;8.20;88.70
3380;DHT22;1703;51.964;7.642;2023-03-01T16:26:11;8.10;90.50
3380;DHT22;1703;51.964;7.642;2023-03-01T16:28:39;8.00;91.40
3380;DHT22;1703;51.964;7.642;2023-03-01T16:31:06;7.90;91.70
3380;DHT22;1703;51.964;7.642;2023-03-01T16:33:32;7.80;92.20
3380;DHT22;1703;51.964;7.642;2023-03-01T16:36:00;7.70;92.70
3380;DHT22;1703;51.964;7.642;2023-03-01T16:38:28;7.60;92.80
3380;DHT22;1703;51.964;7.642;2023-03-01T16:40:56;7.50;93.30
3380;DHT22;1703;51.964;7.642;2023-03-01T16:43:23;7.50;93.70
3380;DHT22;1703;51.964;7.642;2023-03-01T16:45:50;7.40;94.30
3380;DHT22;1703;51.964;7.642;2023-03-01T16:48:17;7.30;94.70
3380;DHT22;1703;51.964;7.642;2023-03-01T16:50:44;7.30;95.10
3380;DHT22;1703;51.964;7.642;2023-03-01T16:53:11;7.30;95.70
3380;DHT22;1703;51.964;7.642;2023-03-01T16:55:37;7.20;96.50
3380;DHT22;1703;51.964;7.642;2023-03-01T16:58:12;7.20;96.50
3380;DHT22;1703;51.964;7.642;2023-03-01T17:00:40;7.00;97.20
3380;DHT22;1703;51.964;7.642;2023-03-01T17:03:07;7.00;97.80
3380;DHT22;1703;51.964;7.642;2023-03-01T17:05:34;7.00;98.10
3380;DHT22;1703;51.964;7.642;2023-03-01T17:08:01;7.00;98.50
3380;DHT22;1703;51.964;7.642;2023-03-01T17:10:28;6.90;99.00
3380;DHT22;1703;51.964;7.642;2023-03-01T17:12:54;7.00;99.40